Time;durP1;ratioP1;P1;durP2;ratioP2;P2;SDS_P1;SDS_P2;PMS_P1;PMS_P2;Temp;Humidity;BMP_temperature;BMP_pressure;BME280_temperature;BME280_humidity;BME280_pressure;Samples;Min_cycle;Max_cycle;Signal;HPM_P1;HPM_P2
2023/03/12 00:01:18;;;;;;;10.50;6.27;;;;;;;2.46;59.84;99658.88;5011725;27;97294;-80
2023/03/12 00:03:44;;;;;;;15.30;6.87;;;;;;;2.62;60.16;99682.91;5027617;28;101578;-82
2023/03/12 00:06:09;;;;;;;14.23;6.83;;;;;;;2.59;60.02;99675.16;5028381;28;100242;-81
2023/03/12 00:08:35;;;;;;;12.80;6.23;;;;;;;2.51;60.42;99666.63;5028458;28;97016;-84
2023/03/12 00:11:05;;;;;;;11.70;6.37;;;;;;;2.52;60.04;99664.88;5012123;28;97158;-83
2023/03/12 00:13:31;;;;;;;10.43;6.23;;;;;;;2.53;59.91;99661.41;4993720;28;102361;-83
2023/03/12 00:16:02;;;;;;;10.00;5.67;;;;;;;2.55;59.96;99654.47;5010754;28;101200;-81
2023/03/12 00:18:28;;;;;;;11.82;6.25;;;;;;;2.47;59.72;99652.84;5010494;28;96895;-82
2023/03/12 00:20:54;;;;;;;8.67;5.00;;;;;;;2.54;59.85;99660.53;5024824;28;97533;-82
2023/03/12 00:23:19;;;;;;;10.17;5.73;;;;;;;2.55;59.77;99662.25;5010904;28;101598;-81
2023/03/12 00:25:45;;;;;;;10.77;6.00;;;;;;;2.56;59.82;99658.78;5018922;28;99774;-82
2023/03/12 00:28:10;;;;;;;10.47;6.43;;;;;;;2.54;59.82;99666.59;5023392;27;97190;-82
2023/03/12 00:30:36;;;;;;;12.40;5.90;;;;;;;2.45;59.86;99652.00;5026653;27;97189;-84
2023/03/12 00:33:02;;;;;;;11.83;7.00;;;;;;;2.47;59.49;99658.03;4993993;28;101469;-85
2023/03/12 00:35:27;;;;;;;9.17;5.27;;;;;;;2.53;59.62;99672.66;5024861;28;97958;-82
2023/03/12 00:37:53;;;;;;;9.73;5.07;;;;;;;2.46;60.05;99664.06;5044398;27;97563;-82
2023/03/12 00:40:18;;;;;;;11.00;4.77;;;;;;;2.51;60.00;99671.81;5027372;28;97329;-83
2023/03/12 00:42:44;;;;;;;9.07;5.27;;;;;;;2.41;59.71;99657.22;5009917;28;101488;-83
2023/03/12 00:45:10;;;;;;;10.90;5.63;;;;;;;2.45;59.76;99664.09;5007829;28;101570;-83
2023/03/12 00:47:35;;;;;;;9.87;5.57;;;;;;;2.45;59.87;99661.50;5025120;28;96872;-85
2023/03/12 00:50:02;;;;;;;13.60;5.60;;;;;;;2.42;59.62;99652.03;5023759;27;97450;-86
2023/03/12 00:52:27;;;;;;;11.03;5.20;;;;;;;2.46;59.25;99661.47;5010368;28;101546;-83
2023/03/12 00:54:57;;;;;;;9.27;4.57;;;;;;;2.44;59.25;99660.66;5027275;27;101804;-83
2023/03/12 00:57:22;;;;;;;8.37;5.10;;;;;;;2.40;59.57;99655.53;5027790;27;96748;-83
2023/03/12 00:59:48;;;;;;;9.60;5.07;;;;;;;2.21;59.39;99629.84;5011288;28;96945;-82
2023/03/12 01:02:13;;;;;;;10.57;4.90;;;;;;;2.38;59.43;99655.53;5027136;27;101533;-85
2023/03/12 01:04:39;;;;;;;8.67;4.83;;;;;;;2.41;59.16;99667.59;5009771;28;101353;-85
2023/03/12 01:07:04;;;;;;;10.23;4.40;;;;;;;2.34;58.99;99646.09;5009532;28;97156;-83
2023/03/12 01:09:30;;;;;;;8.67;4.23;;;;;;;2.43;58.95;99663.25;4998447;28;97315;-86
2023/03/12 01:11:56;;;;;;;7.27;3.87;;;;;;;2.43;59.05;99668.44;5025767;27;101924;-83
2023/03/12 01:14:23;;;;;;;6.20;3.50;;;;;;;2.42;59.12;99674.50;5027603;27;101351;-84
2023/03/12 01:16:49;;;;;;;7.83;4.03;;;;;;;2.38;58.91;99668.47;5042310;27;96880;-83
2023/03/12 01:19:14;;;;;;;7.73;3.80;;;;;;;2.18;58.75;99653.19;4990450;28;96994;-82
2023/03/12 01:21:40;;;;;;;10.03;4.40;;;;;;;2.31;58.87;99669.44;5024066;28;98108;-84
2023/03/12 01:24:06;;;;;;;8.80;4.00;;;;;;;2.33;58.73;99654.75;5024714;28;101812;-83
2023/03/12 01:26:32;;;;;;;7.23;3.87;;;;;;;2.21;58.56;99653.13;5008634;28;98264;-84
2023/03/12 01:28:57;;;;;;;9.77;4.63;;;;;;;2.37;58.70;99671.94;5006651;28;97420;-83
2023/03/12 01:31:23;;;;;;;5.47;3.17;;;;;;;2.21;58.55;99644.47;5007781;28;101376;-84
2023/03/12 01:33:50;;;;;;;9.33;4.13;;;;;;;2.28;58.54;99648.75;5009303;28;100814;-83
2023/03/12 01:36:22;;;;;;;6.83;3.63;;;;;;;2.38;58.83;99663.28;5010025;28;97235;-82
2023/03/12 01:38:50;;;;;;;6.13;3.35;;;;;;;2.35;58.30;99659.88;5003562;28;96984;-84
2023/03/12 01:41:16;;;;;;;6.83;3.60;;;;;;;2.32;58.42;99659.91;5013932;28;102155;-82
2023/03/12 01:43:42;;;;;;;8.60;3.40;;;;;;;2.15;58.31;99627.31;5012531;27;101115;-83
2023/03/12 01:46:27;;;;;;;5.20;2.90;;;;;;;2.36;58.21;99661.63;5010884;28;97076;-84
2023/03/12 01:49:09;;;;;;;6.60;3.50;;;;;;;2.28;58.41;99658.25;4993133;28;97191;-85
2023/03/12 01:51:40;;;;;;;7.27;3.27;;;;;;;2.30;58.32;99667.72;5026286;27;99747;-83
2023/03/12 01:54:10;;;;;;;5.47;2.67;;;;;;;2.27;58.21;99660.00;5030003;27;101349;-84
2023/03/12 01:56:36;;;;;;;7.87;3.50;;;;;;;2.24;58.36;99667.75;5030328;27;97281;-83
2023/03/12 01:59:08;;;;;;;10.23;2.90;;;;;;;2.27;58.34;99670.34;5010024;28;97136;-84
2023/03/12 02:01:34;;;;;;;5.32;2.95;;;;;;;2.25;58.15;99665.16;4993213;28;101354;-83
2023/03/12 02:04:00;;;;;;;5.43;3.27;;;;;;;2.16;58.02;99649.72;5037081;27;100886;-80
2023/03/12 02:06:33;;;;;;;12.10;4.20;;;;;;;2.26;58.08;99669.47;4997083;28;97333;-81
2023/03/12 02:09:00;;;;;;;6.97;2.80;;;;;;;2.12;58.22;99644.59;5028632;27;97194;-82
2023/03/12 02:11:25;;;;;;;4.53;2.67;;;;;;;2.16;58.36;99659.25;5012759;28;101406;-81
2023/03/12 02:13:51;;;;;;;6.43;2.70;;;;;;;2.27;58.29;99678.13;5029973;27;101280;-82
2023/03/12 02:16:18;;;;;;;6.87;2.70;;;;;;;2.22;57.98;99665.19;5013489;28;97141;-80
2023/03/12 02:18:44;;;;;;;8.67;2.80;;;;;;;2.32;58.22;99672.88;5008654;28;96886;-80
2023/03/12 02:21:22;;;;;;;11.93;3.53;;;;;;;2.31;57.75;99691.88;5023218;28;100434;-83
2023/03/12 02:23:56;;;;;;;4.33;2.20;;;;;;;2.27;58.13;99680.72;4999214;28;101503;-84
2023/03/12 02:26:23;;;;;;;7.53;2.77;;;;;;;2.19;57.90;99670.41;5023944;27;97185;-81
2023/03/12 02:28:49;;;;;;;6.70;2.70;;;;;;;2.25;57.92;99685.03;5028688;27;97487;-80
2023/03/12 02:31:19;;;;;;;6.30;2.33;;;;;;;2.25;57.99;99683.31;5030185;27;98489;-85
2023/03/12 02:33:45;;;;;;;6.23;2.27;;;;;;;2.20;57.60;99685.06;5029235;27;101900;-84
2023/03/12 02:36:10;;;;;;;6.93;2.40;;;;;;;2.21;57.68;99692.00;5030641;28;97335;-82
2023/03/12 02:38:38;;;;;;;5.30;2.73;;;;;;;2.25;57.39;99688.47;5030148;27;97356;-82
2023/03/12 02:41:10;;;;;;;4.40;2.17;;;;;;;2.15;57.45;99671.34;5011755;27;101612;-83
2023/03/12 02:43:36;;;;;;;;;;;;;;;2.24;56.98;99693.66;5045817;27;100512;-81
2023/03/12 02:46:02;;;;;;;8.73;2.50;;;;;;;2.25;57.24;99692.81;5027012;27;97269;-85
2023/03/12 02:48:28;;;;;;;5.73;2.00;;;;;;;2.22;57.25;99691.09;5012256;28;97253;-85
2023/03/12 02:50:53;;;;;;;3.67;2.20;;;;;;;2.20;57.19;99685.06;5005165;28;101958;-82
2023/03/12 02:53:19;;;;;;;3.77;2.07;;;;;;;2.24;57.37;99697.13;5037882;27;101226;-81
2023/03/12 02:55:44;;;;;;;5.23;2.40;;;;;;;2.22;57.12;99687.66;5022227;28;96710;-80
2023/03/12 02:58:10;;;;;;;4.73;2.27;;;;;;;2.16;56.94;99691.16;5011853;28;98316;-82
2023/03/12 03:00:36;;;;;;;2.93;1.90;;;;;;;2.16;57.17;99691.16;5028465;27;101208;-85
2023/03/12 03:03:02;;;;;;;5.37;2.13;;;;;;;2.24;56.83;99701.44;5008872;28;101440;-85
2023/03/12 03:05:28;;;;;;;5.83;2.17;;;;;;;2.19;56.89;99692.88;5011462;28;96849;-82
2023/03/12 03:07:53;;;;;;;5.10;2.37;;;;;;;2.28;57.13;99710.06;5028399;28;97044;-83
2023/03/12 03:10:19;;;;;;;8.00;2.60;;;;;;;2.16;56.83;99696.34;4995304;28;101656;-83
2023/03/12 03:12:45;;;;;;;4.40;1.67;;;;;;;2.12;57.08;99689.47;5011795;27;100300;-84
2023/03/12 03:15:11;;;;;;;4.50;2.23;;;;;;;2.23;56.76;99704.91;5011392;28;97447;-84
2023/03/12 03:17:37;;;;;;;4.77;2.03;;;;;;;2.20;56.93;99710.13;5011590;28;97257;-83
2023/03/12 03:20:07;;;;;;;4.93;1.93;;;;;;;2.19;56.79;99698.06;5027631;28;100962;-83
2023/03/12 03:22:33;;;;;;;6.23;2.13;;;;;;;2.09;57.01;99696.41;5021405;28;98112;-84
2023/03/12 03:24:58;;;;;;;10.97;2.33;;;;;;;2.17;56.98;99716.19;5005111;28;97212;-82
2023/03/12 03:27:24;;;;;;;8.20;2.37;;;;;;;2.20;57.06;99717.88;5012223;28;97282;-85
2023/03/12 03:29:51;;;;;;;4.97;2.30;;;;;;;2.06;56.89;99697.28;5011718;28;101110;-84
2023/03/12 03:32:16;;;;;;;4.70;2.10;;;;;;;2.17;56.81;99725.69;5007866;28;101561;-83
2023/03/12 03:34:42;;;;;;;4.93;2.90;;;;;;;2.16;56.70;99730.00;5045701;27;96813;-86
2023/03/12 03:37:08;;;;;;;4.03;1.80;;;;;;;2.17;57.20;99736.03;5011547;28;97332;-84
2023/03/12 03:39:34;;;;;;;5.87;2.20;;;;;;;2.02;56.73;99716.31;5011979;28;101417;-84
2023/03/12 03:42:00;;;;;;;7.10;2.17;;;;;;;2.11;56.83;99731.78;5027729;28;101199;-84
2023/03/12 03:44:29;;;;;;;5.33;1.97;;;;;;;2.10;56.63;99724.03;5030560;27;97116;-83
2023/03/12 03:46:55;;;;;;;4.77;2.30;;;;;;;1.98;56.92;99705.16;5010943;28;97286;-84
2023/03/12 03:49:21;;;;;;;4.10;1.70;;;;;;;2.14;57.03;99738.66;5010580;28;101868;-83
2023/03/12 03:51:48;;;;;;;5.47;1.90;;;;;;;2.14;56.74;99725.72;5010699;28;101156;-84
2023/03/12 03:54:19;;;;;;;5.93;1.80;;;;;;;2.16;57.05;99744.69;5008132;28;97171;-82
2023/03/12 03:56:46;;;;;;;7.43;2.00;;;;;;;2.18;56.58;99745.50;5029182;28;97175;-85
2023/03/12 03:59:12;;;;;;;3.30;1.93;;;;;;;2.05;56.47;99726.66;5011199;28;101488;-82
2023/03/12 04:01:40;;;;;;;2.90;1.77;;;;;;;1.98;57.04;99723.28;5044699;27;101518;-82
2023/03/12 04:04:05;;;;;;;4.93;2.20;;;;;;;1.99;56.51;99734.47;5028636;27;97234;-83
2023/03/12 04:06:32;;;;;;;6.37;1.93;;;;;;;2.14;56.36;99746.44;5026631;28;97420;-84
2023/03/12 04:08:58;;;;;;;3.77;1.77;;;;;;;2.01;56.35;99727.56;5010362;28;101528;-82
2023/03/12 04:11:25;;;;;;;3.97;1.80;;;;;;;2.11;56.53;99743.88;5011493;28;100879;-83
2023/03/12 04:13:52;;;;;;;4.10;2.10;;;;;;;2.06;56.26;99745.63;5011680;28;97128;-82
2023/03/12 04:16:21;;;;;;;5.93;1.73;;;;;;;2.05;56.39;99749.97;5029669;27;97057;-82
2023/03/12 04:18:49;;;;;;;5.57;1.80;;;;;;;2.08;56.54;99754.25;5027542;28;100420;-83
2023/03/12 04:21:16;;;;;;;3.40;1.60;;;;;;;2.03;56.26;99739.59;5011017;28;101988;-83
2023/03/12 04:23:42;;;;;;;7.13;1.90;;;;;;;2.01;56.19;99737.91;5009923;28;97080;-82
2023/03/12 04:26:10;;;;;;;4.43;1.77;;;;;;;2.00;56.14;99739.63;5011345;28;96895;-83
2023/03/12 04:28:36;;;;;;;5.17;2.43;;;;;;;2.16;56.35;99762.81;5010410;27;100896;-82
2023/03/12 04:31:05;;;;;;;5.33;1.60;;;;;;;2.03;56.19;99737.00;5010541;28;100892;-84
2023/03/12 04:33:38;;;;;;;5.63;1.70;;;;;;;2.10;56.02;99753.38;5012483;28;96827;-83
2023/03/12 04:36:05;;;;;;;6.20;2.10;;;;;;;2.08;55.74;99749.94;5011151;28;97349;-83
2023/03/12 04:38:31;;;;;;;3.13;1.77;;;;;;;2.19;55.78;99765.38;5009896;28;101555;-84
2023/03/12 04:41:04;;;;;;;4.87;1.77;;;;;;;2.21;55.70;99777.44;5010506;28;101908;-83
2023/03/12 04:43:29;;;;;;;;;;;;;;;2.20;55.34;99774.84;5028930;28;96966;-85
2023/03/12 04:45:56;;;;;;;4.20;1.60;;;;;;;2.18;55.12;99774.88;5016392;28;97172;-84
2023/03/12 04:48:22;;;;;;;6.10;2.33;;;;;;;2.22;55.51;99783.47;5009529;28;101004;-82
2023/03/12 04:50:50;;;;;;;5.40;2.10;;;;;;;2.21;55.13;99780.03;5007856;27;101667;-82
2023/03/12 04:53:15;;;;;;;6.30;1.80;;;;;;;2.17;55.28;99777.47;5001932;28;97317;-81
2023/03/12 04:55:41;;;;;;;4.60;2.00;;;;;;;2.13;55.69;99783.56;4996491;28;97189;-83
2023/03/12 04:58:07;;;;;;;5.50;1.60;;;;;;;2.18;55.00;99784.34;5001952;28;101523;-83
2023/03/12 05:00:33;;;;;;;3.10;1.80;;;;;;;2.19;54.92;99799.03;5010733;28;101970;-83
2023/03/12 05:02:58;;;;;;;7.93;1.80;;;;;;;1.98;54.92;99769.88;4993568;28;96831;-82
2023/03/12 05:05:24;;;;;;;3.83;1.50;;;;;;;2.19;55.29;99804.22;5012032;28;96930;-82
2023/03/12 05:07:50;;;;;;;3.80;1.67;;;;;;;2.20;54.88;99801.59;5025983;28;101262;-82
2023/03/12 05:10:16;;;;;;;3.33;1.87;;;;;;;2.08;54.91;99787.91;5010740;28;102033;-83
2023/03/12 05:12:42;;;;;;;3.10;1.60;;;;;;;2.14;55.04;99791.31;5008742;28;97402;-83
2023/03/12 05:15:08;;;;;;;2.93;1.50;;;;;;;2.14;54.64;99798.22;5012520;28;97312;-84
2023/03/12 05:17:34;;;;;;;5.57;1.87;;;;;;;2.16;54.63;99805.09;5030005;27;101514;-83
2023/03/12 05:20:00;;;;;;;3.60;1.63;;;;;;;2.18;54.31;99805.06;4995514;28;101188;-82
2023/03/12 05:22:26;;;;;;;6.47;1.63;;;;;;;2.14;54.83;99808.56;5031170;28;97766;-82
2023/03/12 05:24:53;;;;;;;6.10;2.10;;;;;;;2.04;54.52;99787.94;5011446;28;96964;-82
2023/03/12 05:27:19;;;;;;;3.90;1.70;;;;;;;2.13;54.45;99796.50;5014020;28;101575;-82
2023/03/12 05:29:44;;;;;;;5.40;2.10;;;;;;;2.20;54.46;99818.88;5025888;28;101516;-84
2023/03/12 05:32:10;;;;;;;6.73;2.30;;;;;;;2.11;54.28;99798.25;5014036;28;97117;-82
2023/03/12 05:34:36;;;;;;;8.00;1.93;;;;;;;2.17;54.52;99809.41;5007768;28;96824;-82
2023/03/12 05:37:02;;;;;;;3.37;1.70;;;;;;;2.21;54.42;99815.41;5012526;28;101506;-83
2023/03/12 05:39:29;;;;;;;4.53;2.10;;;;;;;2.17;53.86;99808.56;5013658;28;101792;-82
2023/03/12 05:41:59;;;;;;;3.50;1.60;;;;;;;2.12;54.29;99793.03;5047135;27;97326;-83
2023/03/12 05:44:25;;;;;;;5.47;2.03;;;;;;;2.16;54.28;99802.53;5013897;28;96827;-82
2023/03/12 05:46:53;;;;;;;3.10;1.60;;;;;;;2.28;53.80;99821.41;5028860;27;101692;-81
2023/03/12 05:49:22;;;;;;;6.37;1.50;;;;;;;2.27;54.11;99817.97;4998026;28;101563;-80
2023/03/12 05:51:48;;;;;;;5.33;1.40;;;;;;;2.31;54.10;99824.84;4992814;28;97962;-84
2023/03/12 05:54:15;;;;;;;6.60;2.37;;;;;;;2.31;53.62;99819.66;5009784;28;97131;-80
2023/03/12 05:56:41;;;;;;;4.83;1.93;;;;;;;2.45;53.65;99832.50;5022535;28;101626;-79
2023/03/12 05:59:09;;;;;;;6.60;2.00;;;;;;;2.48;53.56;99830.72;5012638;28;101469;-79
2023/03/12 06:01:36;;;;;;;3.87;1.60;;;;;;;2.46;53.62;99832.47;5012694;28;97162;-80
2023/03/12 06:04:03;;;;;;;5.30;1.40;;;;;;;2.52;53.45;99833.28;5028382;28;97184;-79
2023/03/12 06:06:30;;;;;;;7.27;1.57;;;;;;;2.56;53.51;99835.88;5033217;27;101618;-84
2023/03/12 06:08:56;;;;;;;2.83;1.30;;;;;;;2.72;53.20;99844.34;4995232;28;100487;-81
2023/03/12 06:11:22;;;;;;;5.47;1.40;;;;;;;2.87;52.95;99846.78;5006559;28;97105;-81
2023/03/12 06:13:48;;;;;;;5.90;1.63;;;;;;;3.04;52.48;99851.78;5012930;28;96926;-84
2023/03/12 06:16:24;;;;;;;3.27;1.57;;;;;;;3.17;52.28;99836.94;5028529;28;97725;-82
2023/03/12 06:18:54;;;;;;;4.40;2.03;;;;;;;3.43;51.93;99854.78;5011297;28;101648;-83
2023/03/12 06:21:24;;;;;;;5.90;1.80;;;;;;;3.51;50.95;99839.13;5010333;28;97398;-82
2023/03/12 06:23:50;;;;;;;3.97;1.70;;;;;;;3.76;51.12;99855.25;5028415;27;97141;-83
2023/03/12 06:26:22;;;;;;;6.23;1.90;;;;;;;3.99;51.24;99866.16;5028014;28;101615;-82
2023/03/12 06:28:48;;;;;;;3.50;1.53;;;;;;;4.24;50.81;99866.63;5028957;27;101519;-81
2023/03/12 06:31:15;;;;;;;6.40;1.97;;;;;;;4.36;50.03;99867.34;5028648;27;97275;-81
2023/03/12 06:33:40;;;;;;;5.67;1.77;;;;;;;4.38;49.65;99847.38;5004214;28;97117;-81
2023/03/12 06:36:07;;;;;;;5.13;2.10;;;;;;;4.67;49.54;99876.34;5015007;28;101377;-80
2023/03/12 06:38:33;;;;;;;4.90;1.67;;;;;;;4.77;49.43;99871.88;5009547;28;101449;-80
2023/03/12 06:41:01;;;;;;;3.97;1.50;;;;;;;4.92;49.31;99857.72;5020613;27;97127;-81
2023/03/12 06:43:28;;;;;;;5.77;1.70;;;;;;;5.21;49.16;99867.59;5003804;28;97031;-81
2023/03/12 06:45:55;;;;;;;4.03;2.00;;;;;;;5.39;48.50;99856.81;5028130;27;97912;-80
2023/03/12 06:48:21;;;;;;;4.03;1.83;;;;;;;5.65;47.79;99871.91;5024374;28;101257;-80
2023/03/12 06:50:47;;;;;;;8.60;2.17;;;;;;;5.88;47.66;99876.59;5026247;27;97941;-80
2023/03/12 06:53:13;;;;;;;4.50;1.90;;;;;;;6.06;47.05;99874.53;5011999;28;96900;-80
2023/03/12 06:55:38;;;;;;;4.50;2.00;;;;;;;6.20;47.00;99889.84;5012202;28;101577;-81
2023/03/12 06:58:04;;;;;;;8.27;2.27;;;;;;;6.18;47.44;99896.84;5027731;27;97679;-80
2023/03/12 07:00:31;;;;;;;4.03;1.67;;;;;;;6.31;47.25;99887.81;5011575;28;97537;-81
2023/03/12 07:02:56;;;;;;;6.40;2.47;;;;;;;6.54;46.67;99889.88;5011935;28;96908;-80
2023/03/12 07:05:23;;;;;;;3.57;1.90;;;;;;;6.56;46.32;99888.97;5011585;28;101625;-80
2023/03/12 07:07:49;;;;;;;2.60;1.60;;;;;;;6.43;45.76;99869.31;5011451;28;97581;-81
2023/03/12 07:10:15;;;;;;;4.07;1.67;;;;;;;6.64;46.11;99886.16;5044846;27;97164;-81
2023/03/12 07:12:40;;;;;;;5.50;2.63;;;;;;;6.90;45.81;99884.66;5007932;28;97019;-81
2023/03/12 07:15:06;;;;;;;7.40;3.77;;;;;;;7.12;45.43;99893.63;5025418;28;101530;-81
2023/03/12 07:17:33;;;;;;;7.87;4.03;;;;;;;7.37;44.89;99896.44;4994657;27;101044;-81
2023/03/12 07:19:58;;;;;;;7.57;2.77;;;;;;;7.60;44.33;99894.94;5011524;27;96791;-83
2023/03/12 07:22:24;;;;;;;10.27;4.50;;;;;;;7.61;44.51;99909.69;5013772;28;96934;-86
2023/03/12 07:24:52;;;;;;;9.10;3.00;;;;;;;7.57;44.39;99903.72;5022044;28;101088;-85
2023/03/12 07:27:18;;;;;;;6.00;2.30;;;;;;;7.58;44.44;99920.25;5013782;28;101620;-84
2023/03/12 07:29:43;;;;;;;6.90;2.83;;;;;;;7.59;44.73;99903.66;5025187;28;97245;-85
2023/03/12 07:32:09;;;;;;;5.53;1.83;;;;;;;7.54;44.95;99914.25;5051473;27;97229;-84
2023/03/12 07:34:34;;;;;;;5.80;2.23;;;;;;;7.18;45.21;99916.94;5029824;27;97710;-85
2023/03/12 07:37:00;;;;;;;4.30;1.80;;;;;;;7.09;46.04;99929.41;5028295;27;101716;-85
2023/03/12 07:39:26;;;;;;;5.95;1.75;;;;;;;6.84;45.35;99930.03;5011717;28;97168;-78
2023/03/12 07:41:51;;;;;;;3.43;1.60;;;;;;;6.67;45.96;99927.84;5009735;28;97394;-81
2023/03/12 07:44:17;;;;;;;4.77;2.40;;;;;;;6.54;46.31;99922.06;5026777;27;101621;-79
2023/03/12 07:46:43;;;;;;;6.17;2.00;;;;;;;6.48;46.40;99922.19;5011487;28;100848;-79
2023/03/12 07:49:08;;;;;;;10.73;1.90;;;;;;;6.39;47.00;99913.72;4989955;28;97105;-82
2023/03/12 07:51:34;;;;;;;5.23;2.30;;;;;;;6.34;46.97;99922.53;5008204;28;98308;-82
2023/03/12 07:53:59;;;;;;;4.37;1.60;;;;;;;6.28;46.91;99932.22;5041670;27;97772;-95
2023/03/12 07:56:25;;;;;;;6.83;2.13;;;;;;;6.06;46.81;99934.44;5047451;27;101237;-91
2023/03/12 07:58:51;;;;;;;11.87;2.27;;;;;;;5.90;47.72;99923.44;5030972;27;96927;-91
2023/03/12 08:01:17;;;;;;;6.50;2.13;;;;;;;5.99;47.56;99935.47;5014207;28;96724;-90
2023/03/12 08:03:43;;;;;;;5.97;2.70;;;;;;;6.11;47.71;99938.69;5012417;28;101745;-92
2023/03/12 08:06:09;;;;;;;4.03;1.90;;;;;;;6.14;47.30;99942.97;5013217;28;100126;-88
2023/03/12 08:08:37;;;;;;;6.80;1.83;;;;;;;6.20;47.48;99921.97;5032333;27;96812;-88
2023/03/12 08:11:03;;;;;;;6.37;2.00;;;;;;;6.26;47.95;99936.63;5019963;28;97136;-92
2023/03/12 08:13:32;;;;;;;4.30;2.10;;;;;;;6.27;47.33;99941.78;5020136;28;100174;-96
2023/03/12 08:15:57;;;;;;;4.93;1.80;;;;;;;6.29;47.62;99946.97;5049211;28;100646;-94
2023/03/12 08:18:24;;;;;;;3.87;1.80;;;;;;;6.28;47.47;99953.06;5019247;28;97043;-90
2023/03/12 08:20:53;;;;;;;3.43;1.53;;;;;;;6.13;46.96;99939.47;5014762;28;97282;-91
2023/03/12 08:23:19;;;;;;;4.47;2.10;;;;;;;6.14;47.70;99953.41;5014167;28;100917;-91
2023/03/12 08:25:49;;;;;;;7.10;2.40;;;;;;;6.08;47.80;99949.16;5013616;28;101254;-92
2023/03/12 08:28:16;;;;;;;4.40;1.77;;;;;;;6.13;48.13;99951.66;5030049;28;96705;-89
2023/03/12 08:30:50;;;;;;;6.60;2.13;;;;;;;6.39;48.33;99958.06;5019200;27;97153;-92
2023/03/12 08:33:16;;;;;;;5.73;1.93;;;;;;;6.22;47.89;99907.13;5032005;28;98409;-93
2023/03/12 08:35:44;;;;;;;5.03;2.10;;;;;;;6.16;47.73;99896.00;5033016;27;97342;-93
2023/03/12 08:38:12;;;;;;;9.33;1.93;;;;;;;6.38;47.12;99938.09;5000192;28;96825;-94
2023/03/12 08:40:43;;;;;;;4.33;2.03;;;;;;;6.30;47.22;99938.25;5011183;28;97276;-95
2023/03/12 08:43:16;;;;;;;5.33;2.03;;;;;;;6.23;47.64;99919.31;5006779;28;100345;-94
2023/03/12 08:45:45;;;;;;;5.93;1.93;;;;;;;6.04;47.37;99895.38;5029958;28;101014;-94
2023/03/12 08:48:10;;;;;;;5.40;2.30;;;;;;;6.08;47.65;99910.09;5013691;28;97242;-90
2023/03/12 08:50:36;;;;;;;12.13;2.10;;;;;;;6.39;47.86;99971.94;5048139;27;97441;-89
2023/03/12 08:53:01;;;;;;;4.33;2.17;;;;;;;6.46;47.80;99963.09;5047701;27;99546;-88
2023/03/12 08:55:27;;;;;;;6.90;2.70;;;;;;;6.48;47.98;99963.06;5015249;28;98032;-77
2023/03/12 08:57:56;;;;;;;8.77;2.80;;;;;;;6.53;48.00;99969.03;5015115;28;97199;-83
2023/03/12 09:00:21;;;;;;;7.70;2.73;;;;;;;6.54;47.90;99965.50;5015506;28;96861;-86
2023/03/12 09:02:48;;;;;;;7.93;2.20;;;;;;;6.78;47.68;99969.31;4998837;28;100369;-85
2023/03/12 09:05:14;;;;;;;7.10;1.80;;;;;;;6.74;47.50;99954.63;5041106;27;101481;-85
2023/03/12 09:07:39;;;;;;;3.07;1.90;;;;;;;7.11;46.45;99962.41;5020159;28;96816;-85
2023/03/12 09:10:06;;;;;;;4.90;2.13;;;;;;;7.23;46.13;99974.28;5015626;28;97521;-86
2023/03/12 09:12:31;;;;;;;5.70;2.47;;;;;;;7.19;46.55;99950.00;5015455;28;100111;-86
2023/03/12 09:14:57;;;;;;;6.73;2.00;;;;;;;7.23;45.79;99935.97;4998475;28;100637;-85
2023/03/12 09:17:22;;;;;;;6.90;2.30;;;;;;;7.44;46.01;99965.00;5014330;28;97132;-85
2023/03/12 09:19:48;;;;;;;4.65;2.28;;;;;;;7.55;46.15;99969.97;5032407;28;97365;-85
2023/03/12 09:22:13;;;;;;;8.93;2.50;;;;;;;7.96;45.80;99971.41;5031687;28;101605;-85
2023/03/12 09:24:39;;;;;;;7.00;2.40;;;;;;;8.05;45.27;99972.91;5049434;27;100113;-86
2023/03/12 09:27:04;;;;;;;4.80;2.30;;;;;;;8.07;45.35;99969.34;5031657;28;97230;-86
2023/03/12 09:29:31;;;;;;;4.43;1.90;;;;;;;8.16;44.44;99966.44;5033187;28;96803;-85
2023/03/12 09:31:57;;;;;;;8.35;2.65;;;;;;;8.20;44.97;99967.22;5048722;27;98218;-86
2023/03/12 09:34:22;;;;;;;7.65;2.35;;;;;;;8.10;44.88;99965.78;5032228;28;100715;-85
2023/03/12 09:36:48;;;;;;;5.18;1.98;;;;;;;7.94;45.42;99966.25;5015386;28;97839;-85
2023/03/12 09:39:14;;;;;;;5.03;1.95;;;;;;;8.16;44.48;99962.97;5017354;28;97356;-87
2023/03/12 09:41:40;;;;;;;5.50;1.98;;;;;;;9.14;43.71;99956.44;5047968;28;97040;-85
2023/03/12 09:44:36;;;;;;;6.13;2.65;;;;;;;11.26;40.06;99955.34;5025168;28;100736;-86
2023/03/12 09:47:11;;;;;;;6.20;2.40;;;;;;;12.86;37.56;99954.16;5024144;28;97215;-86
2023/03/12 09:49:45;;;;;;;4.80;1.60;;;;;;;13.95;36.21;99950.38;5017441;28;97287;-86
2023/03/12 09:52:39;;;;;;;3.83;1.48;;;;;;;14.92;34.07;99937.91;5012015;28;100996;-86
2023/03/12 09:55:14;;;;;;;3.85;1.60;;;;;;;15.86;32.89;99949.09;4997782;28;101149;-85
2023/03/12 09:57:40;;;;;;;7.45;2.22;;;;;;;15.87;32.41;99929.59;5031273;28;97446;-86
2023/03/12 10:00:12;;;;;;;3.67;2.03;;;;;;;16.29;32.35;99943.75;5031058;27;96869;-85
2023/03/12 10:02:51;;;;;;;5.47;2.17;;;;;;;16.64;31.82;99940.59;5014439;28;98677;-86
2023/03/12 10:05:33;;;;;;;6.90;2.22;;;;;;;16.40;31.40;99933.31;5013187;28;100510;-90
2023/03/12 10:08:24;;;;;;;3.53;1.63;;;;;;;15.20;33.13;99926.59;5022223;27;97537;-87
2023/03/12 10:10:54;;;;;;;9.15;2.40;;;;;;;15.07;33.99;99937.06;5003133;28;97120;-87
2023/03/12 10:13:25;;;;;;;6.60;2.45;;;;;;;15.09;34.28;99942.22;5030245;27;97633;-87
2023/03/12 10:16:00;;;;;;;6.00;2.00;;;;;;;14.95;33.45;99911.31;5014263;28;101246;-86
2023/03/12 10:18:53;;;;;;;5.68;2.22;;;;;;;14.15;33.86;99905.28;5030843;27;97106;-86
2023/03/12 10:21:26;;;;;;;5.88;2.17;;;;;;;14.53;33.88;99935.78;5043547;27;96743;-85
2023/03/12 10:24:17;;;;;;;6.63;2.15;;;;;;;14.23;33.54;99931.25;5038071;27;98639;-87
2023/03/12 10:26:45;;;;;;;6.28;2.35;;;;;;;13.86;34.78;99940.31;5031419;28;97371;-86
2023/03/12 10:29:29;;;;;;;6.57;2.45;;;;;;;13.66;34.50;99944.00;5014657;28;97160;-84
2023/03/12 10:32:15;;;;;;;8.05;2.95;;;;;;;13.56;34.38;99943.66;5031389;28;96985;-86
2023/03/12 10:35:01;;;;;;;6.30;2.50;;;;;;;13.36;34.97;99942.88;5030032;28;98021;-86
2023/03/12 10:37:28;;;;;;;6.53;2.40;;;;;;;13.35;34.39;99949.09;5024770;27;101344;-85
2023/03/12 10:39:54;;;;;;;10.95;2.85;;;;;;;12.52;36.20;99954.94;5028429;27;97317;-86
2023/03/12 10:42:23;;;;;;;8.25;3.17;;;;;;;11.88;37.24;99934.28;5010428;28;96937;-85
2023/03/12 10:45:12;;;;;;;5.63;2.47;;;;;;;11.82;37.38;99953.78;5013268;27;101794;-85
2023/03/12 10:47:40;;;;;;;6.90;2.45;;;;;;;11.56;38.02;99955.78;5012191;28;102177;-85
2023/03/12 10:50:11;;;;;;;6.47;2.67;;;;;;;11.28;38.78;99956.09;5012765;28;97161;-86
2023/03/12 10:52:37;;;;;;;;;;;;;;;11.06;38.99;99956.19;5031013;28;97510;-85
2023/03/12 10:55:13;;;;;;;8.13;2.35;;;;;;;10.94;39.24;99930.44;5028605;28;101609;-85
2023/03/12 10:57:40;;;;;;;5.85;2.20;;;;;;;10.87;38.89;99934.22;5006529;28;101361;-86
2023/03/12 11:00:10;;;;;;;4.70;2.30;;;;;;;10.68;39.07;99960.38;5029527;28;96795;-85
2023/03/12 11:02:44;;;;;;;5.38;2.50;;;;;;;10.34;40.08;99900.50;4991036;28;97388;-84
2023/03/12 11:05:47;;;;;;;6.07;2.38;;;;;;;10.47;40.15;99951.59;5013603;28;101612;-85
2023/03/12 11:08:34;;;;;;;11.15;2.50;;;;;;;10.39;40.36;99949.25;4996774;28;101640;-85
2023/03/12 11:11:00;;;;;;;9.95;3.05;;;;;;;10.37;41.18;99944.97;4995699;27;97219;-85
2023/03/12 11:13:40;;;;;;;6.63;2.50;;;;;;;10.30;41.00;99938.28;5012356;28;96955;-85
2023/03/12 11:16:15;;;;;;;8.93;2.47;;;;;;;10.32;40.97;99942.53;5019341;28;100166;-84
2023/03/12 11:18:55;;;;;;;5.78;2.63;;;;;;;10.24;41.37;99934.09;5013571;28;101473;-84
2023/03/12 11:21:20;;;;;;;6.43;2.33;;;;;;;10.19;41.28;99939.50;5030278;28;96907;-85
2023/03/12 11:23:55;;;;;;;5.15;2.53;;;;;;;9.95;40.94;99930.81;5014295;28;96893;-85
2023/03/12 11:26:23;;;;;;;6.10;2.40;;;;;;;9.78;41.69;99922.72;5014649;28;101122;-84
2023/03/12 11:29:00;;;;;;;5.88;2.25;;;;;;;9.86;40.69;99922.41;4993661;28;101460;-84
2023/03/12 11:31:33;;;;;;;5.65;2.38;;;;;;;9.93;41.08;99929.16;5027799;28;97935;-83
2023/03/12 11:34:04;;;;;;;4.65;2.20;;;;;;;9.85;40.96;99926.81;5021824;28;97007;-84
2023/03/12 11:36:52;;;;;;;4.32;2.50;;;;;;;9.89;41.52;99928.41;5018058;28;96800;-84
2023/03/12 11:39:30;;;;;;;5.35;2.10;;;;;;;9.77;42.09;99925.38;5025764;28;97912;-84
2023/03/12 11:42:01;;;;;;;8.00;2.47;;;;;;;9.72;41.03;99929.03;5028157;28;97075;-84